Time,TemperatureF,DewpointF,PressureIn,WindDirection,WindDirectionDegrees,WindSpeedMPH,WindSpeedGustMPH,Humidity,HourlyPrecipIn,Conditions,Clouds,dailyrainin,SolarRadiationWatts/m^2,SoftwareType,DateUTC
2013-08-18 00:01:00,60.0,49.0,-100.00,NE,34,2.0,3.0,68,0.00,,,0.00,1.000000,,2013-08-18 08:01:00,
2013-08-18 00:12:00,60.0,49.0,-100.00,NE,34,2.0,3.0,68,0.00,,,0.00,1.000000,,2013-08-18 08:12:00,
2013-08-18 00:21:00,60.0,49.0,-100.00,NE,34,2.0,3.0,68,0.00,,,0.00,1.000000,,2013-08-18 08:21:00,
2013-08-18 00:52:00,59.0,50.0,-100.00,ESE,112,2.0,3.0,71,0.00,,,0.00,1.000000,,2013-08-18 08:52:00,
2013-08-18 01:01:00,59.0,50.0,-100.00,ESE,112,2.0,3.0,71,0.00,,,0.00,1.000000,,2013-08-18 09:01:00,
2013-08-18 01:11:00,59.0,50.0,-100.00,ESE,112,2.0,3.0,71,0.00,,,0.00,1.000000,,2013-08-18 09:11:00,
2013-08-18 01:21:00,59.0,50.0,-100.00,ESE,112,2.0,3.0,71,0.00,,,0.00,1.000000,,2013-08-18 09:21:00,
2013-08-18 01:53:00,57.0,50.0,-100.00,ESE,106,2.0,4.0,77,0.00,,,0.00,1.000000,,2013-08-18 09:53:00,
2013-08-18 02:03:00,57.0,50.0,-100.00,ESE,106,2.0,4.0,77,0.00,,,0.00,1.000000,,2013-08-18 10:03:00,
2013-08-18 02:13:00,57.0,50.0,-100.00,ESE,106,2.0,4.0,77,0.00,,,0.00,1.000000,,2013-08-18 10:13:00,
2013-08-18 02:22:00,57.0,50.0,-100.00,ESE,106,2.0,4.0,77,0.00,,,0.00,1.000000,,2013-08-18 10:22:00,
2013-08-18 02:52:00,55.0,50.0,-100.00,East,83,2.0,4.0,84,0.00,,,0.00,1.000000,,2013-08-18 10:52:00,
2013-08-18 03:02:00,55.0,50.0,-100.00,East,83,2.0,4.0,84,0.00,,,0.00,1.000000,,2013-08-18 11:02:00,
2013-08-18 03:11:00,55.0,50.0,-100.00,East,83,2.0,4.0,84,0.00,,,0.00,1.000000,,2013-08-18 11:11:00,
2013-08-18 03:21:00,55.0,50.0,-100.00,East,83,2.0,4.0,84,0.00,,,0.00,1.000000,,2013-08-18 11:21:00,
2013-08-18 03:52:00,54.0,51.0,-100.00,East,100,2.0,4.0,89,0.00,,,0.00,1.000000,,2013-08-18 11:52:00,
2013-08-18 04:01:00,54.0,51.0,-100.00,East,100,2.0,4.0,89,0.00,,,0.00,1.000000,,2013-08-18 12:01:00,
2013-08-18 04:11:00,54.0,51.0,-100.00,East,100,2.0,4.0,89,0.00,,,0.00,1.000000,,2013-08-18 12:11:00,
2013-08-18 04:21:00,54.0,51.0,-100.00,East,100,2.0,4.0,89,0.00,,,0.00,1.000000,,2013-08-18 12:21:00,
2013-08-18 04:52:00,54.0,51.0,-100.00,East,97,2.0,5.0,89,0.00,,,0.00,1.000000,,2013-08-18 12:52:00,
2013-08-18 05:01:00,54.0,51.0,-100.00,East,97,2.0,5.0,89,0.00,,,0.00,1.000000,,2013-08-18 13:01:00,
2013-08-18 05:11:00,54.0,51.0,-100.00,East,97,2.0,5.0,89,0.00,,,0.00,1.000000,,2013-08-18 13:11:00,
2013-08-18 05:21:00,54.0,51.0,-100.00,East,97,2.0,5.0,89,0.00,,,0.00,1.000000,,2013-08-18 13:21:00,
2013-08-18 05:52:00,53.0,50.0,-100.00,SSE,164,2.0,4.0,90,0.00,,,0.00,1.000000,,2013-08-18 13:52:00,
2013-08-18 06:01:00,53.0,50.0,-100.00,SSE,164,2.0,4.0,90,0.00,,,0.00,1.000000,,2013-08-18 14:01:00,
2013-08-18 06:11:00,53.0,50.0,-100.00,SSE,164,2.0,4.0,90,0.00,,,0.00,1.000000,,2013-08-18 14:11:00,
2013-08-18 06:21:00,53.0,50.0,-100.00,SSE,164,2.0,4.0,90,0.00,,,0.00,1.000000,,2013-08-18 14:21:00,
2013-08-18 06:53:00,53.0,51.0,-100.00,SSE,166,2.0,4.0,92,0.00,,,-99.99,2.000000,,2013-08-18 14:53:00,
2013-08-18 07:01:00,53.0,51.0,-100.00,SSE,166,2.0,4.0,92,0.00,,,-99.99,2.000000,,2013-08-18 15:01:00,
2013-08-18 07:11:00,53.0,51.0,-100.00,SSE,166,2.0,4.0,92,0.00,,,-99.99,2.000000,,2013-08-18 15:11:00,
2013-08-18 07:22:00,53.0,51.0,-100.00,SSE,166,2.0,4.0,92,0.00,,,-99.99,2.000000,,2013-08-18 15:22:00,
2013-08-18 07:54:00,52.0,50.0,-100.00,East,93,2.0,3.0,93,0.00,,,0.00,12.000000,,2013-08-18 15:54:00,
2013-08-18 08:03:00,52.0,50.0,-100.00,East,93,2.0,3.0,93,0.00,,,0.00,12.000000,,2013-08-18 16:03:00,
2013-08-18 08:13:00,52.0,50.0,-100.00,East,93,2.0,3.0,93,0.00,,,0.00,12.000000,,2013-08-18 16:13:00,
2013-08-18 08:23:00,52.0,50.0,-100.00,East,93,2.0,3.0,93,0.00,,,0.00,12.000000,,2013-08-18 16:23:00,
2013-08-18 08:52:00,52.0,50.0,-100.00,SSE,159,2.0,4.0,92,0.00,,,0.00,37.000000,,2013-08-18 16:52:00,
2013-08-18 09:02:00,52.0,50.0,-100.00,SSE,159,2.0,4.0,92,0.00,,,0.00,37.000000,,2013-08-18 17:02:00,
2013-08-18 09:12:00,52.0,50.0,-100.00,SSE,159,2.0,4.0,92,0.00,,,0.00,37.000000,,2013-08-18 17:12:00,
2013-08-18 09:23:00,52.0,50.0,-100.00,SSE,159,2.0,4.0,92,0.00,,,0.00,37.000000,,2013-08-18 17:23:00,
2013-08-18 09:52:00,53.0,50.0,-100.00,SE,146,3.0,4.0,91,0.00,,,0.00,69.000000,,2013-08-18 17:52:00,
2013-08-18 10:02:00,53.0,50.0,-100.00,SE,146,3.0,4.0,91,0.00,,,0.00,69.000000,,2013-08-18 18:02:00,
2013-08-18 10:12:00,53.0,50.0,-100.00,SE,146,3.0,4.0,91,0.00,,,0.00,69.000000,,2013-08-18 18:12:00,
2013-08-18 10:21:00,53.0,50.0,-100.00,SE,146,3.0,4.0,91,0.00,,,0.00,69.000000,,2013-08-18 18:21:00,
2013-08-18 10:52:00,56.0,52.0,-100.00,SSE,150,3.0,7.0,88,0.00,,,0.00,123.000000,,2013-08-18 18:52:00,
2013-08-18 11:01:00,56.0,52.0,-100.00,SSE,150,3.0,7.0,88,0.00,,,0.00,123.000000,,2013-08-18 19:01:00,
2013-08-18 11:11:00,56.0,52.0,-100.00,SSE,150,3.0,7.0,88,0.00,,,0.00,123.000000,,2013-08-18 19:11:00,
2013-08-18 11:22:00,56.0,52.0,-100.00,SSE,150,3.0,7.0,88,0.00,,,0.00,123.000000,,2013-08-18 19:22:00,
2013-08-18 11:52:00,62.0,54.0,-100.00,South,169,3.0,7.0,76,0.00,,,0.00,321.000000,,2013-08-18 19:52:00,
2013-08-18 12:02:00,62.0,54.0,-100.00,South,169,3.0,7.0,76,0.00,,,0.00,321.000000,,2013-08-18 20:02:00,
2013-08-18 12:12:00,62.0,54.0,-100.00,South,169,3.0,7.0,76,0.00,,,0.00,321.000000,,2013-08-18 20:12:00,
2013-08-18 12:22:00,62.0,54.0,-100.00,South,169,3.0,7.0,76,0.00,,,0.00,321.000000,,2013-08-18 20:22:00,
2013-08-18 12:52:00,62.0,52.0,-100.00,South,173,3.0,7.0,70,0.00,,,0.00,304.000000,,2013-08-18 20:52:00,
2013-08-18 13:01:00,62.0,52.0,-100.00,South,173,3.0,7.0,70,0.00,,,0.00,304.000000,,2013-08-18 21:01:00,
2013-08-18 13:11:00,62.0,52.0,-100.00,South,173,3.0,7.0,70,0.00,,,0.00,304.000000,,2013-08-18 21:11:00,
2013-08-18 13:21:00,62.0,52.0,-100.00,South,173,3.0,7.0,70,0.00,,,0.00,304.000000,,2013-08-18 21:21:00,
2013-08-18 13:53:00,66.0,53.0,-100.00,SW,229,3.0,6.0,62,0.00,,,-99.99,337.000000,,2013-08-18 21:53:00,
2013-08-18 14:03:00,66.0,53.0,-100.00,SW,229,3.0,6.0,62,0.00,,,-99.99,337.000000,,2013-08-18 22:03:00,
2013-08-18 14:13:00,66.0,53.0,-100.00,SW,229,3.0,6.0,62,0.00,,,-99.99,337.000000,,2013-08-18 22:13:00,
2013-08-18 14:23:00,66.0,53.0,-100.00,SW,229,3.0,6.0,62,0.00,,,-99.99,337.000000,,2013-08-18 22:23:00,
2013-08-18 14:52:00,66.0,52.0,-100.00,South,191,3.0,6.0,60,0.00,,,0.00,261.000000,,2013-08-18 22:52:00,
2013-08-18 15:02:00,66.0,52.0,-100.00,South,191,3.0,6.0,60,0.00,,,0.00,261.000000,,2013-08-18 23:02:00,
2013-08-18 15:11:00,66.0,52.0,-100.00,South,191,3.0,6.0,60,0.00,,,0.00,261.000000,,2013-08-18 23:11:00,
2013-08-18 15:22:00,66.0,52.0,-100.00,South,191,3.0,6.0,60,0.00,,,0.00,261.000000,,2013-08-18 23:22:00,
2013-08-18 15:52:00,71.0,51.0,-100.00,SW,236,4.0,9.0,49,0.00,,,0.00,558.000000,,2013-08-18 23:52:00,
2013-08-18 16:02:00,71.0,51.0,-100.00,SW,236,4.0,9.0,49,0.00,,,0.00,558.000000,,2013-08-19 00:02:00,
2013-08-18 16:11:00,71.0,51.0,-100.00,SW,236,4.0,9.0,49,0.00,,,0.00,558.000000,,2013-08-19 00:11:00,
2013-08-18 16:21:00,71.0,51.0,-100.00,SW,236,4.0,9.0,49,0.00,,,0.00,558.000000,,2013-08-19 00:21:00,
2013-08-18 16:52:00,65.0,44.0,-100.00,SW,221,4.0,10.0,47,0.00,,,0.00,313.000000,,2013-08-19 00:52:00,
2013-08-18 17:02:00,65.0,44.0,-100.00,SW,221,4.0,10.0,47,0.00,,,0.00,313.000000,,2013-08-19 01:02:00,
2013-08-18 17:11:00,65.0,44.0,-100.00,SW,221,4.0,10.0,47,0.00,,,0.00,313.000000,,2013-08-19 01:11:00,
2013-08-18 17:22:00,65.0,44.0,-100.00,SW,221,4.0,10.0,47,0.00,,,0.00,313.000000,,2013-08-19 01:22:00,
2013-08-18 17:52:00,65.0,55.0,-100.00,SSE,160,2.0,7.0,71,0.01,,,0.01,256.000000,,2013-08-19 01:52:00,
2013-08-18 18:06:00,65.0,55.0,-100.00,SSE,160,2.0,7.0,71,0.01,,,0.01,256.000000,,2013-08-19 02:06:00,
2013-08-18 18:11:00,65.0,55.0,-100.00,SSE,160,2.0,7.0,71,0.01,,,0.01,256.000000,,2013-08-19 02:11:00,
2013-08-18 18:21:00,65.0,55.0,-100.00,SSE,160,2.0,7.0,71,0.01,,,0.01,256.000000,,2013-08-19 02:21:00,
2013-08-18 18:52:00,67.0,54.0,-100.00,NE,44,2.0,4.0,62,0.00,,,0.01,167.000000,,2013-08-19 02:52:00,
2013-08-18 19:01:00,67.0,54.0,-100.00,NE,44,2.0,4.0,62,0.00,,,0.01,167.000000,,2013-08-19 03:01:00,
2013-08-18 19:11:00,67.0,54.0,-100.00,NE,44,2.0,4.0,62,0.00,,,0.01,167.000000,,2013-08-19 03:11:00,
2013-08-18 19:21:00,67.0,54.0,-100.00,NE,44,2.0,4.0,62,0.00,,,0.01,167.000000,,2013-08-19 03:21:00,
2013-08-18 19:53:00,62.0,54.0,-100.00,East,100,2.0,3.0,75,0.00,,,0.01,75.000000,,2013-08-19 03:53:00,
2013-08-18 20:03:00,62.0,54.0,-100.00,East,100,2.0,3.0,75,0.00,,,0.01,75.000000,,2013-08-19 04:03:00,
2013-08-18 20:12:00,62.0,54.0,-100.00,East,100,2.0,3.0,75,0.00,,,0.01,75.000000,,2013-08-19 04:12:00,
2013-08-18 20:23:00,62.0,54.0,-100.00,East,100,2.0,3.0,75,0.00,,,0.01,75.000000,,2013-08-19 04:23:00,
2013-08-18 21:22:00,64.0,58.0,-100.00,ENE,76,1.0,4.0,81,0.00,,,0.01,115.000000,,2013-08-19 05:22:00,
2013-08-18 21:52:00,59.0,54.0,-100.00,ESE,103,2.0,3.0,84,0.00,,,0.01,32.000000,,2013-08-19 05:52:00,
2013-08-18 22:02:00,59.0,54.0,-100.00,ESE,103,2.0,3.0,84,0.00,,,0.01,32.000000,,2013-08-19 06:02:00,
2013-08-18 22:11:00,59.0,54.0,-100.00,ESE,103,2.0,3.0,84,0.00,,,0.01,32.000000,,2013-08-19 06:11:00,
2013-08-18 22:21:00,59.0,54.0,-100.00,ESE,103,2.0,3.0,84,0.00,,,0.01,32.000000,,2013-08-19 06:21:00,
2013-08-18 23:52:00,51.0,50.0,-100.00,ESE,112,0.0,2.0,96,-99.99,,,0.01,1.000000,,2013-08-19 07:52:00,